createdAt,value
2022-09-28T00:00:19.718Z,93.40
2022-09-28T00:00:54.302Z,93.40
2022-09-28T00:01:27.880Z,93.60
2022-09-28T00:02:03.142Z,93.50
2022-09-28T00:02:36.741Z,93.50
2022-09-28T00:03:11.478Z,93.50
2022-09-28T00:03:46.565Z,93.50
2022-09-28T00:04:21.205Z,93.50
2022-09-28T00:04:54.792Z,93.60
2022-09-28T00:05:28.205Z,93.60
2022-09-28T00:06:02.114Z,93.50
2022-09-28T00:06:35.599Z,93.50
2022-09-28T00:07:10.475Z,93.60
2022-09-28T00:07:44.628Z,93.60
2022-09-28T00:08:17.956Z,93.50
2022-09-28T00:08:52.588Z,93.50
2022-09-28T00:09:26.819Z,93.70
2022-09-28T00:10:00.111Z,93.70
2022-09-28T00:10:36.171Z,93.60
2022-09-28T00:11:12.951Z,93.70
2022-09-28T00:11:46.684Z,93.70
2022-09-28T00:12:21.904Z,93.80
2022-09-28T00:12:55.971Z,93.80
2022-09-28T00:13:30.568Z,93.80
2022-09-28T00:14:07.991Z,93.90
2022-09-28T00:14:43.287Z,93.90
2022-09-28T00:15:16.867Z,93.90
2022-09-28T00:16:00.721Z,93.90
2022-09-28T00:16:35.513Z,94.00
2022-09-28T00:17:10.754Z,94.10
2022-09-28T00:17:44.837Z,94.20
2022-09-28T00:18:17.109Z,94.10
2022-09-28T00:18:51.611Z,94.00
2022-09-28T00:19:25.349Z,94.30
2022-09-28T00:19:58.303Z,94.10
2022-09-28T00:20:34.266Z,94.10
2022-09-28T00:21:08.800Z,94.00
2022-09-28T00:21:43.177Z,94.10
2022-09-28T00:22:16.041Z,94.10
2022-09-28T00:22:49.133Z,94.10
2022-09-28T00:23:22.662Z,94.20
2022-09-28T00:24:16.891Z,94.10
2022-09-28T00:24:50.964Z,94.10
2022-09-28T00:25:25.160Z,94.20
2022-09-28T00:26:01.748Z,94.30
2022-09-28T00:26:34.971Z,94.30
2022-09-28T00:27:10.229Z,94.20
2022-09-28T00:27:42.747Z,94.30
2022-09-28T00:28:16.417Z,94.30
2022-09-28T00:28:55.165Z,94.30
2022-09-28T00:29:29.026Z,94.30
2022-09-28T00:30:02.618Z,94.40
2022-09-28T00:30:36.644Z,94.30
2022-09-28T00:31:10.202Z,94.30
2022-09-28T00:31:43.383Z,94.40
2022-09-28T00:32:18.927Z,94.40
2022-09-28T00:32:52.549Z,94.40
2022-09-28T00:33:25.876Z,94.40
2022-09-28T00:34:01.111Z,94.40
2022-09-28T00:34:38.341Z,94.40
2022-09-28T00:35:11.104Z,94.40
2022-09-28T00:35:44.767Z,94.40
2022-09-28T00:36:19.967Z,94.50
2022-09-28T00:36:54.132Z,94.40
2022-09-28T00:37:27.646Z,94.40
2022-09-28T00:38:03.092Z,94.40
2022-09-28T00:38:35.713Z,94.50
2022-09-28T00:39:09.637Z,94.50
2022-09-28T00:39:44.690Z,94.50
2022-09-28T00:40:19.508Z,94.50
2022-09-28T00:40:52.998Z,94.60
2022-09-28T00:41:28.498Z,94.50
2022-09-28T00:42:02.300Z,94.50
2022-09-28T00:42:35.751Z,94.50
2022-09-28T00:43:20.010Z,94.50
2022-09-28T00:44:15.354Z,94.60
2022-09-28T00:44:50.940Z,94.60
2022-09-28T00:45:26.832Z,94.60
2022-09-28T00:46:04.270Z,94.70
2022-09-28T00:46:39.101Z,94.70
2022-09-28T00:47:20.555Z,94.70
2022-09-28T00:47:58.752Z,94.80
2022-09-28T00:48:35.031Z,94.70
2022-09-28T00:49:12.453Z,94.70
2022-09-28T00:49:49.756Z,94.70
2022-09-28T00:50:25.041Z,94.70
2022-09-28T00:51:00.604Z,94.80
2022-09-28T00:51:35.125Z,94.70
2022-09-28T00:52:09.130Z,94.70
2022-09-28T00:52:46.562Z,94.70
2022-09-28T00:53:22.405Z,94.70
2022-09-28T00:53:56.809Z,94.70
2022-09-28T00:54:30.945Z,94.70
2022-09-28T00:55:07.468Z,94.80
2022-09-28T00:55:43.854Z,94.80
2022-09-28T00:56:20.264Z,95.00
2022-09-28T00:56:53.416Z,94.90
2022-09-28T00:57:27.830Z,94.90
2022-09-28T00:58:04.521Z,94.90
2022-09-28T00:58:40.131Z,95.00
2022-09-28T00:59:15.404Z,95.10
2022-09-28T00:59:50.665Z,95.00
2022-09-28T01:00:25.888Z,95.00
2022-09-28T01:01:00.644Z,95.00
2022-09-28T01:01:34.771Z,94.90
2022-09-28T01:02:10.978Z,94.90
2022-09-28T01:02:48.136Z,95.00
2022-09-28T01:03:21.716Z,95.00
2022-09-28T01:03:55.456Z,95.00
2022-09-28T01:04:30.758Z,95.00
2022-09-28T01:05:05.243Z,95.00
2022-09-28T01:05:40.033Z,95.00
2022-09-28T01:06:19.622Z,95.00
2022-09-28T01:06:55.366Z,95.20
2022-09-28T01:07:29.545Z,95.10
2022-09-28T01:08:03.461Z,95.00
2022-09-28T01:08:37.171Z,95.00
2022-09-28T01:09:10.667Z,95.00
2022-09-28T01:09:46.574Z,95.00
2022-09-28T01:10:19.850Z,95.00
2022-09-28T01:10:53.446Z,95.00
2022-09-28T01:11:26.971Z,95.00
2022-09-28T01:12:00.627Z,95.00
2022-09-28T01:12:34.014Z,95.00
2022-09-28T01:13:07.931Z,95.10
2022-09-28T01:13:42.004Z,95.10
2022-09-28T01:14:17.710Z,95.20
2022-09-28T01:14:51.025Z,95.10
2022-09-28T01:15:27.182Z,95.10
2022-09-28T01:16:04.751Z,95.20
2022-09-28T01:16:42.784Z,95.10
2022-09-28T01:17:31.128Z,95.20
2022-09-28T01:18:11.069Z,95.20
2022-09-28T01:18:51.986Z,95.20
2022-09-28T01:19:36.062Z,95.20
2022-09-28T01:20:24.745Z,95.20
2022-09-28T01:21:02.424Z,95.20
2022-09-28T01:21:39.164Z,95.20
2022-09-28T01:22:19.970Z,95.30
2022-09-28T01:23:27.279Z,95.20
2022-09-28T01:24:15.914Z,95.20
2022-09-28T01:24:57.897Z,95.30
2022-09-28T01:25:37.390Z,95.30
2022-09-28T01:26:32.294Z,95.40
2022-09-28T01:27:14.486Z,95.30
2022-09-28T01:27:50.901Z,95.40
2022-09-28T01:28:26.392Z,95.30
2022-09-28T01:29:03.019Z,95.60
2022-09-28T01:29:41.545Z,95.40
2022-09-28T01:30:16.117Z,95.40
2022-09-28T01:30:55.099Z,95.40
2022-09-28T01:31:30.604Z,95.40
2022-09-28T01:32:07.640Z,95.40
2022-09-28T01:32:47.768Z,95.40
2022-09-28T01:33:24.455Z,95.50
2022-09-28T01:33:58.959Z,95.50
2022-09-28T01:34:38.047Z,95.50
2022-09-28T01:35:15.688Z,95.50
2022-09-28T01:35:53.364Z,95.40
2022-09-28T01:36:29.909Z,95.40
2022-09-28T01:37:04.643Z,95.50
2022-09-28T01:37:40.811Z,95.50
2022-09-28T01:38:17.402Z,95.50
2022-09-28T01:38:53.304Z,95.50
2022-09-28T01:39:30.089Z,95.40
2022-09-28T01:40:05.139Z,95.40
2022-09-28T01:40:38.944Z,95.40
2022-09-28T01:41:12.353Z,95.40
2022-09-28T01:41:48.894Z,95.40
2022-09-28T01:42:25.104Z,95.40
2022-09-28T01:43:01.925Z,95.50
2022-09-28T01:43:38.017Z,95.50
2022-09-28T01:44:15.633Z,95.50
2022-09-28T01:44:53.641Z,95.60
2022-09-28T01:45:28.705Z,95.60
2022-09-28T01:46:05.928Z,95.60
2022-09-28T01:46:42.775Z,95.60
2022-09-28T01:47:17.962Z,95.70
2022-09-28T01:47:54.871Z,95.70
2022-09-28T01:48:33.662Z,95.70
2022-09-28T01:49:08.830Z,95.60
2022-09-28T01:49:44.716Z,95.60
2022-09-28T01:50:19.737Z,95.60
2022-09-28T01:50:55.227Z,95.60
2022-09-28T01:51:31.892Z,95.60
2022-09-28T01:52:08.821Z,95.60
2022-09-28T01:52:45.413Z,95.70
2022-09-28T01:53:21.772Z,95.70
2022-09-28T01:53:57.494Z,95.70
2022-09-28T01:54:32.634Z,95.80
2022-09-28T01:55:10.483Z,95.80
2022-09-28T01:55:45.498Z,95.80
2022-09-28T01:56:21.809Z,95.70
2022-09-28T01:56:58.527Z,95.70
2022-09-28T01:57:36.220Z,95.70
2022-09-28T01:58:12.764Z,95.70
2022-09-28T01:58:47.746Z,95.80
2022-09-28T01:59:25.230Z,95.70
2022-09-28T02:00:01.133Z,95.90
2022-09-28T02:00:37.080Z,95.70
2022-09-28T02:01:13.826Z,95.70
2022-09-28T02:01:50.079Z,95.60
2022-09-28T02:02:27.466Z,95.60
2022-09-28T02:03:03.709Z,95.60
2022-09-28T02:03:48.907Z,95.60
2022-09-28T02:04:23.760Z,95.60
2022-09-28T02:04:59.748Z,95.60
2022-09-28T02:05:34.651Z,95.60
2022-09-28T02:06:12.614Z,95.60
2022-09-28T02:06:49.344Z,95.60
2022-09-28T02:07:25.106Z,95.60
2022-09-28T02:07:59.870Z,95.50
2022-09-28T02:08:36.701Z,95.50
2022-09-28T02:09:13.212Z,95.50
2022-09-28T02:09:52.908Z,95.50
2022-09-28T02:10:30.610Z,95.50
2022-09-28T02:11:05.127Z,95.50
2022-09-28T02:11:39.539Z,95.50
2022-09-28T02:12:17.893Z,95.50
2022-09-28T02:12:53.328Z,95.50
2022-09-28T02:13:30.888Z,95.50
2022-09-28T02:14:05.381Z,95.50
2022-09-28T02:14:41.644Z,95.60
2022-09-28T02:15:18.559Z,95.60
2022-09-28T02:15:52.732Z,95.60
2022-09-28T02:16:32.849Z,95.60
2022-09-28T02:17:07.275Z,95.60
2022-09-28T02:17:40.931Z,95.60
2022-09-28T02:18:14.975Z,95.50
2022-09-28T02:18:48.779Z,95.50
2022-09-28T02:19:23.101Z,95.60
2022-09-28T02:19:59.173Z,95.60
2022-09-28T02:20:33.205Z,95.60
2022-09-28T02:21:12.430Z,95.60
2022-09-28T02:21:49.480Z,95.60
2022-09-28T02:22:25.666Z,95.60
2022-09-28T02:23:02.491Z,95.60
2022-09-28T02:23:38.992Z,95.60
2022-09-28T02:24:18.239Z,95.50
2022-09-28T02:24:55.459Z,95.50
2022-09-28T02:25:32.771Z,95.60
2022-09-28T02:26:10.740Z,95.60
2022-09-28T02:26:47.017Z,95.60
2022-09-28T02:27:27.320Z,95.60
2022-09-28T02:28:01.641Z,95.60
2022-09-28T02:28:35.364Z,95.80
2022-09-28T02:29:10.343Z,95.50
2022-09-28T02:29:43.511Z,95.50
2022-09-28T02:30:17.999Z,95.40
2022-09-28T02:30:52.867Z,95.40
2022-09-28T02:31:26.934Z,95.40
2022-09-28T02:32:00.512Z,95.50
2022-09-28T02:32:40.797Z,95.40
2022-09-28T02:33:15.821Z,95.50
2022-09-28T02:33:50.008Z,95.50
2022-09-28T02:34:23.768Z,95.50
2022-09-28T02:34:57.706Z,95.50
2022-09-28T02:35:31.912Z,95.50
2022-09-28T02:36:06.056Z,95.70
2022-09-28T02:36:45.595Z,95.40
2022-09-28T02:37:19.868Z,95.40
2022-09-28T02:37:55.533Z,95.50
2022-09-28T02:38:28.264Z,95.50
2022-09-28T02:39:02.999Z,95.60
2022-09-28T02:39:37.690Z,95.60
2022-09-28T02:40:32.310Z,95.60
2022-09-28T02:41:10.172Z,95.60
2022-09-28T02:41:50.052Z,95.70
2022-09-28T02:42:27.336Z,95.70
2022-09-28T02:43:03.018Z,95.70
2022-09-28T02:43:43.932Z,95.70
2022-09-28T02:44:26.657Z,95.60
2022-09-28T02:45:11.089Z,95.60
2022-09-28T02:45:52.570Z,95.60
2022-09-28T02:46:30.008Z,95.60
2022-09-28T02:47:18.797Z,95.70
2022-09-28T02:47:57.765Z,95.70
2022-09-28T02:48:44.044Z,95.70
2022-09-28T02:49:26.598Z,95.70
2022-09-28T02:50:08.663Z,95.70
2022-09-28T02:50:48.504Z,95.60
2022-09-28T02:51:26.820Z,95.60
2022-09-28T02:52:27.031Z,95.60
2022-09-28T02:53:22.803Z,95.60
2022-09-28T02:54:19.116Z,95.70
2022-09-28T02:55:11.518Z,95.70
2022-09-28T02:55:52.565Z,95.80
2022-09-28T02:56:34.471Z,95.80
2022-09-28T02:57:24.581Z,95.80
2022-09-28T02:58:07.675Z,95.80
2022-09-28T02:58:48.620Z,95.80
2022-09-28T02:59:31.236Z,95.70
2022-09-28T03:00:06.290Z,95.70
2022-09-28T03:00:45.248Z,95.70
2022-09-28T03:01:25.173Z,95.70
2022-09-28T03:02:03.497Z,95.70
2022-09-28T03:02:41.793Z,95.70
2022-09-28T03:03:19.202Z,95.70
2022-09-28T03:03:56.142Z,95.80
2022-09-28T03:04:36.331Z,95.80
2022-09-28T03:05:19.200Z,95.80
2022-09-28T03:05:57.583Z,95.80
2022-09-28T03:06:33.022Z,95.80
2022-09-28T03:07:13.049Z,95.80
2022-09-28T03:07:50.035Z,95.80
2022-09-28T03:08:25.632Z,95.80
2022-09-28T03:09:02.149Z,95.90
2022-09-28T03:09:40.996Z,95.90
2022-09-28T03:10:17.333Z,95.90
2022-09-28T03:10:52.313Z,95.90
2022-09-28T03:11:27.896Z,95.90
2022-09-28T03:12:02.159Z,96.00
2022-09-28T03:12:37.566Z,96.00
2022-09-28T03:13:13.540Z,96.00
2022-09-28T03:13:47.157Z,96.00
2022-09-28T03:14:21.659Z,96.10
2022-09-28T03:15:09.933Z,96.00
2022-09-28T03:15:48.650Z,96.00
2022-09-28T03:16:26.803Z,96.00
2022-09-28T03:17:00.902Z,96.00
2022-09-28T03:17:34.016Z,96.00
2022-09-28T03:18:09.126Z,96.00
2022-09-28T03:18:42.302Z,95.90
2022-09-28T03:19:16.536Z,95.90
2022-09-28T03:19:50.820Z,95.90
2022-09-28T03:20:24.691Z,96.00
2022-09-28T03:20:58.680Z,96.00
2022-09-28T03:21:31.481Z,96.00
2022-09-28T03:22:08.129Z,96.00
2022-09-28T03:22:41.469Z,96.00
2022-09-28T03:23:30.715Z,96.00
2022-09-28T03:24:06.658Z,95.90
2022-09-28T03:24:40.726Z,96.00
2022-09-28T03:25:14.905Z,96.00
2022-09-28T03:25:49.508Z,96.00
2022-09-28T03:26:23.305Z,96.00
2022-09-28T03:26:57.479Z,96.30
2022-09-28T03:27:32.010Z,96.10
2022-09-28T03:28:05.333Z,96.10
2022-09-28T03:28:42.971Z,96.10
2022-09-28T03:29:25.237Z,96.10
2022-09-28T03:30:04.526Z,96.10
2022-09-28T03:30:39.504Z,96.10
2022-09-28T03:31:14.735Z,96.00
2022-09-28T03:31:48.096Z,96.10
2022-09-28T03:32:23.424Z,96.10
2022-09-28T03:32:58.463Z,96.10
2022-09-28T03:33:34.076Z,96.10
2022-09-28T03:34:10.480Z,96.20
2022-09-28T03:34:45.716Z,96.20
2022-09-28T03:35:20.884Z,96.10
2022-09-28T03:35:57.140Z,96.10
2022-09-28T03:36:33.728Z,96.30
2022-09-28T03:37:06.876Z,96.10
2022-09-28T03:37:41.167Z,96.10
2022-09-28T03:38:13.964Z,96.10
2022-09-28T03:38:48.793Z,96.10
2022-09-28T03:39:22.728Z,96.10
2022-09-28T03:39:55.350Z,96.10
2022-09-28T03:40:28.469Z,96.10
2022-09-28T03:41:02.740Z,96.00
2022-09-28T03:41:40.730Z,96.00
2022-09-28T03:42:14.050Z,96.10
2022-09-28T03:42:54.688Z,96.10
2022-09-28T03:43:28.208Z,96.20
2022-09-28T03:44:07.250Z,96.10
2022-09-28T03:44:41.219Z,96.20
2022-09-28T03:45:14.810Z,96.20
2022-09-28T03:45:52.873Z,96.20
2022-09-28T03:46:26.389Z,96.20
2022-09-28T03:47:03.108Z,96.20
2022-09-28T03:47:37.379Z,96.20
2022-09-28T03:48:10.347Z,96.20
2022-09-28T03:48:43.972Z,96.20
2022-09-28T03:49:18.769Z,96.20
2022-09-28T03:49:52.322Z,96.20
2022-09-28T03:50:25.503Z,96.20
2022-09-28T03:51:01.030Z,96.30
2022-09-28T03:51:33.837Z,96.30
2022-09-28T03:52:06.937Z,96.20
2022-09-28T03:52:41.124Z,96.20
2022-09-28T03:53:15.125Z,96.30
2022-09-28T03:53:48.644Z,96.30
2022-09-28T03:54:22.798Z,96.30
2022-09-28T03:54:56.197Z,96.30
2022-09-28T03:55:29.315Z,96.30
2022-09-28T03:56:04.587Z,96.30
2022-09-28T03:56:39.159Z,96.30
2022-09-28T03:57:11.396Z,96.30
2022-09-28T03:57:45.952Z,96.30
2022-09-28T03:58:20.006Z,96.20
2022-09-28T03:58:53.297Z,96.20
2022-09-28T03:59:29.131Z,96.30
2022-09-28T04:00:02.702Z,96.20
2022-09-28T04:00:36.658Z,96.20
2022-09-28T04:01:16.781Z,96.20
2022-09-28T04:01:52.508Z,96.20
2022-09-28T04:02:28.569Z,96.20
2022-09-28T04:03:02.257Z,96.30
2022-09-28T04:03:35.759Z,96.30
2022-09-28T04:04:09.516Z,96.30
2022-09-28T04:04:42.457Z,96.30
2022-09-28T04:05:16.583Z,96.40
2022-09-28T04:05:51.690Z,96.30
2022-09-28T04:06:25.376Z,96.40
2022-09-28T04:06:59.450Z,96.50
2022-09-28T04:07:33.125Z,96.40
2022-09-28T04:08:07.351Z,96.40
2022-09-28T04:08:41.306Z,96.40
2022-09-28T04:09:15.284Z,96.70
2022-09-28T04:09:48.289Z,96.50
2022-09-28T04:10:22.271Z,96.40
2022-09-28T04:10:57.096Z,96.40
2022-09-28T04:11:47.588Z,96.40
2022-09-28T04:12:24.284Z,96.40
2022-09-28T04:12:58.261Z,96.40
2022-09-28T04:13:31.175Z,96.40
2022-09-28T04:14:06.140Z,96.40
2022-09-28T04:14:41.508Z,96.40
2022-09-28T04:15:14.477Z,96.40
2022-09-28T04:15:54.194Z,96.40
2022-09-28T04:16:27.480Z,96.40
2022-09-28T04:17:16.453Z,96.40
2022-09-28T04:17:50.557Z,96.40
2022-09-28T04:18:43.105Z,96.40
2022-09-28T04:19:34.804Z,96.50
2022-09-28T04:20:26.387Z,96.50
2022-09-28T04:21:08.512Z,96.50
2022-09-28T04:21:46.696Z,96.50
2022-09-28T04:22:22.358Z,96.40
2022-09-28T04:23:07.556Z,96.50
2022-09-28T04:23:42.763Z,96.50
2022-09-28T04:24:18.136Z,96.50
2022-09-28T04:24:51.718Z,96.50
2022-09-28T04:25:26.667Z,96.40
2022-09-28T04:26:04.492Z,96.50
2022-09-28T04:26:37.061Z,96.50
2022-09-28T04:27:28.808Z,96.50
2022-09-28T04:28:21.652Z,96.50
2022-09-28T04:29:13.207Z,96.70
2022-09-28T04:29:51.985Z,96.50
2022-09-28T04:30:26.756Z,96.50
2022-09-28T04:31:00.957Z,96.50
2022-09-28T04:31:39.210Z,96.50
2022-09-28T04:32:12.190Z,96.50
2022-09-28T04:32:47.235Z,96.50
2022-09-28T04:33:21.399Z,96.50
2022-09-28T04:33:54.501Z,96.60
2022-09-28T04:34:31.879Z,96.50
2022-09-28T04:35:09.143Z,96.50
2022-09-28T04:35:42.363Z,96.50
2022-09-28T04:36:15.793Z,96.40
2022-09-28T04:36:50.110Z,96.40
2022-09-28T04:37:23.212Z,96.50
2022-09-28T04:37:56.854Z,96.50
2022-09-28T04:38:51.815Z,96.50
2022-09-28T04:39:25.172Z,96.50
2022-09-28T04:40:01.838Z,96.60
2022-09-28T04:40:36.650Z,96.60
2022-09-28T04:41:10.410Z,96.60
2022-09-28T04:41:44.111Z,96.60
2022-09-28T04:42:17.152Z,96.60
2022-09-28T04:42:54.143Z,96.60
2022-09-28T04:43:28.891Z,96.50
2022-09-28T04:44:02.774Z,96.50
2022-09-28T04:44:37.161Z,96.60
2022-09-28T04:45:16.417Z,96.60
2022-09-28T04:45:52.028Z,96.60
2022-09-28T04:46:28.695Z,96.60
2022-09-28T04:47:20.524Z,96.60
2022-09-28T04:48:13.413Z,96.60
2022-09-28T04:49:04.845Z,96.60
2022-09-28T04:49:50.433Z,96.70
2022-09-28T04:50:26.142Z,96.70
2022-09-28T04:51:25.929Z,96.70
2022-09-28T04:51:59.439Z,96.60
2022-09-28T04:52:32.711Z,96.60
2022-09-28T04:53:06.857Z,96.60
2022-09-28T04:53:40.676Z,96.60
2022-09-28T04:54:15.796Z,96.60
2022-09-28T04:54:51.091Z,96.70
2022-09-28T04:55:24.545Z,96.70
2022-09-28T04:55:58.548Z,96.70
2022-09-28T04:56:33.168Z,96.70
2022-09-28T04:57:06.837Z,96.70
2022-09-28T04:57:40.136Z,96.70
2022-09-28T04:58:14.160Z,96.70
2022-09-28T04:58:52.493Z,96.70
2022-09-28T04:59:28.441Z,96.70
2022-09-28T05:00:01.793Z,96.70
2022-09-28T05:00:38.510Z,96.70
2022-09-28T05:01:39.015Z,96.70
2022-09-28T05:02:42.690Z,96.70
2022-09-28T05:03:36.858Z,96.70
2022-09-28T05:04:25.589Z,96.60
2022-09-28T05:05:18.742Z,96.60
2022-09-28T05:06:14.225Z,96.60
2022-09-28T05:06:51.654Z,96.60
2022-09-28T05:07:25.173Z,96.60
2022-09-28T05:07:58.424Z,96.60
2022-09-28T05:08:32.638Z,96.60
2022-09-28T05:09:05.702Z,96.70
2022-09-28T05:09:39.934Z,96.60
2022-09-28T05:10:14.115Z,96.70
2022-09-28T05:10:47.511Z,96.70
2022-09-28T05:11:21.852Z,96.70
2022-09-28T05:11:56.367Z,96.60
2022-09-28T05:12:31.694Z,96.60
2022-09-28T05:13:05.810Z,96.60
2022-09-28T05:13:43.081Z,96.60
2022-09-28T05:14:17.888Z,96.60
2022-09-28T05:14:51.229Z,96.60
2022-09-28T05:15:25.938Z,96.60
2022-09-28T05:16:05.217Z,96.70
2022-09-28T05:16:47.563Z,96.60
2022-09-28T05:17:33.387Z,96.60
2022-09-28T05:18:18.204Z,96.60
2022-09-28T05:18:56.362Z,96.60
2022-09-28T05:19:30.904Z,96.60
2022-09-28T05:20:09.979Z,96.60
2022-09-28T05:20:43.080Z,96.50
2022-09-28T05:21:20.303Z,96.50
2022-09-28T05:21:53.945Z,96.40
2022-09-28T05:22:31.169Z,96.40
2022-09-28T05:23:04.207Z,96.40
2022-09-28T05:23:38.461Z,96.40
2022-09-28T05:24:13.246Z,96.50
2022-09-28T05:24:47.526Z,96.50
2022-09-28T05:25:21.352Z,96.50
2022-09-28T05:26:20.028Z,96.50
2022-09-28T05:26:53.033Z,96.50
2022-09-28T05:27:26.461Z,96.50
2022-09-28T05:28:29.595Z,96.50
2022-09-28T05:29:34.397Z,96.50
2022-09-28T05:30:27.307Z,96.50
2022-09-28T05:31:33.002Z,96.50
2022-09-28T05:32:31.202Z,96.40
2022-09-28T05:33:31.638Z,96.50
2022-09-28T05:34:21.316Z,96.60
2022-09-28T05:34:56.884Z,96.60
2022-09-28T05:35:34.774Z,96.60
2022-09-28T05:36:10.708Z,96.60
2022-09-28T05:36:46.342Z,96.60
2022-09-28T05:37:21.214Z,96.60
2022-09-28T05:37:55.649Z,96.70
2022-09-28T05:38:29.869Z,96.70
2022-09-28T05:39:04.683Z,96.80
2022-09-28T05:39:38.787Z,96.70
2022-09-28T05:40:14.014Z,96.80
2022-09-28T05:40:47.405Z,96.80
2022-09-28T05:41:21.653Z,96.80
2022-09-28T05:41:55.067Z,96.90
2022-09-28T05:42:28.361Z,96.80
2022-09-28T05:43:02.727Z,96.80
2022-09-28T05:43:35.285Z,96.80
2022-09-28T05:44:10.314Z,96.80
2022-09-28T05:44:44.691Z,96.80
2022-09-28T05:45:19.351Z,96.90
2022-09-28T05:45:55.827Z,96.90
2022-09-28T05:46:29.744Z,96.90
2022-09-28T05:47:08.330Z,96.90
2022-09-28T05:47:42.009Z,96.90
2022-09-28T05:48:15.776Z,96.80
2022-09-28T05:48:50.449Z,96.80
2022-09-28T05:49:24.184Z,96.90
2022-09-28T05:49:58.232Z,96.90
2022-09-28T05:50:31.763Z,96.90
2022-09-28T05:51:06.813Z,96.90
2022-09-28T05:51:41.121Z,96.90
2022-09-28T05:52:15.892Z,96.90
2022-09-28T05:52:58.201Z,96.90
2022-09-28T05:53:31.281Z,97.00
2022-09-28T05:54:08.275Z,97.00
2022-09-28T05:54:45.149Z,96.90
2022-09-28T05:55:18.337Z,96.90
2022-09-28T05:55:52.997Z,96.90
2022-09-28T05:56:26.521Z,96.90
2022-09-28T05:57:01.746Z,96.90
2022-09-28T05:57:34.241Z,96.90
2022-09-28T05:58:09.626Z,96.90
2022-09-28T05:58:43.359Z,97.00
2022-09-28T05:59:17.546Z,97.20
2022-09-28T05:59:51.620Z,96.90
2022-09-28T06:00:25.280Z,97.00
2022-09-28T06:01:02.084Z,97.00
2022-09-28T06:01:38.071Z,96.90
2022-09-28T06:02:15.833Z,96.90
2022-09-28T06:02:56.720Z,96.80
2022-09-28T06:03:31.618Z,96.90
2022-09-28T06:04:05.483Z,96.80
2022-09-28T06:04:38.976Z,96.80
2022-09-28T06:05:13.740Z,96.80
2022-09-28T06:05:47.577Z,96.80
2022-09-28T06:06:21.291Z,96.80
2022-09-28T06:06:55.733Z,96.80
2022-09-28T06:07:29.853Z,96.80
2022-09-28T06:08:05.409Z,96.90
2022-09-28T06:08:38.969Z,96.90
2022-09-28T06:09:36.825Z,96.90
2022-09-28T06:10:26.188Z,96.90
2022-09-28T06:11:03.447Z,96.90
2022-09-28T06:11:37.086Z,97.00
2022-09-28T06:12:31.143Z,97.00
2022-09-28T06:13:12.826Z,96.90
2022-09-28T06:13:47.596Z,96.90
2022-09-28T06:14:20.719Z,96.90
2022-09-28T06:14:54.389Z,96.90
2022-09-28T06:15:30.195Z,96.90
2022-09-28T06:16:05.224Z,96.90
2022-09-28T06:16:43.673Z,96.90
2022-09-28T06:17:20.571Z,96.90
2022-09-28T06:18:04.706Z,97.00
2022-09-28T06:19:10.663Z,97.00
2022-09-28T06:20:23.540Z,97.00
2022-09-28T06:21:13.875Z,96.90
2022-09-28T06:21:51.517Z,96.80
2022-09-28T06:22:25.767Z,97.10
2022-09-28T06:23:10.237Z,96.90
2022-09-28T06:23:48.832Z,97.00
2022-09-28T06:24:23.507Z,96.90
2022-09-28T06:24:57.251Z,97.00
2022-09-28T06:25:32.840Z,97.00
2022-09-28T06:26:09.084Z,97.10
2022-09-28T06:26:42.275Z,97.20
2022-09-28T06:27:15.635Z,97.20
2022-09-28T06:27:55.261Z,97.10
2022-09-28T06:28:30.165Z,97.20
2022-09-28T06:29:05.310Z,97.10
2022-09-28T06:29:40.089Z,97.10
2022-09-28T06:30:14.870Z,97.10
2022-09-28T06:30:49.334Z,97.10
2022-09-28T06:31:25.645Z,97.10
2022-09-28T06:32:00.434Z,97.10
2022-09-28T06:32:35.413Z,97.10
2022-09-28T06:33:10.694Z,97.10
2022-09-28T06:33:45.634Z,97.10
2022-09-28T06:34:22.164Z,97.10
2022-09-28T06:34:56.556Z,97.00
2022-09-28T06:35:31.909Z,97.00
2022-09-28T06:36:05.498Z,96.90
2022-09-28T06:36:40.193Z,96.90
2022-09-28T06:37:13.311Z,97.20
2022-09-28T06:37:47.049Z,97.00
2022-09-28T06:38:21.194Z,97.00
2022-09-28T06:38:54.787Z,97.00
2022-09-28T06:39:29.156Z,97.10
2022-09-28T06:40:05.120Z,97.10
2022-09-28T06:40:38.108Z,97.10
2022-09-28T06:41:12.654Z,97.10
2022-09-28T06:41:48.773Z,97.10
2022-09-28T06:42:24.620Z,97.10
2022-09-28T06:43:25.321Z,97.10
2022-09-28T06:44:17.269Z,97.10
2022-09-28T06:45:11.569Z,97.00
2022-09-28T06:46:10.044Z,97.00
2022-09-28T06:47:12.851Z,97.00
2022-09-28T06:47:59.859Z,97.00
2022-09-28T06:48:45.284Z,97.10
2022-09-28T06:49:28.404Z,97.10
2022-09-28T06:50:22.645Z,97.40
2022-09-28T06:51:13.181Z,97.10
2022-09-28T06:51:59.928Z,97.10
2022-09-28T06:52:53.519Z,97.10
2022-09-28T06:53:37.113Z,97.10
2022-09-28T06:54:26.704Z,97.20
2022-09-28T06:55:08.278Z,97.20
2022-09-28T06:55:55.011Z,97.30
2022-09-28T06:56:32.750Z,97.30
2022-09-28T06:57:07.244Z,97.30
2022-09-28T06:57:41.011Z,97.30
2022-09-28T06:58:16.099Z,97.30
2022-09-28T06:58:49.811Z,97.30
2022-09-28T06:59:24.376Z,97.20
2022-09-28T06:59:57.143Z,97.20
2022-09-28T07:00:33.607Z,97.20
2022-09-28T07:01:09.301Z,97.20
2022-09-28T07:01:54.630Z,97.20
2022-09-28T07:02:48.446Z,97.30
2022-09-28T07:03:43.843Z,97.30
2022-09-28T07:04:17.436Z,97.30
2022-09-28T07:05:15.460Z,97.30
2022-09-28T07:06:24.939Z,97.40
2022-09-28T07:07:01.379Z,97.50
2022-09-28T07:08:02.639Z,97.30
2022-09-28T07:09:26.768Z,97.40
2022-09-28T07:10:19.646Z,97.40
2022-09-28T07:11:29.354Z,97.40
2022-09-28T07:12:15.681Z,97.50
2022-09-28T07:12:55.980Z,97.40
2022-09-28T07:13:49.440Z,97.50
2022-09-28T07:14:45.058Z,97.40
2022-09-28T07:15:19.698Z,97.40
2022-09-28T07:15:56.049Z,97.40
2022-09-28T07:16:55.636Z,97.30
2022-09-28T07:17:24.133Z,97.30
2022-09-28T07:18:02.528Z,97.20
2022-09-28T07:18:39.027Z,97.20
2022-09-28T07:19:14.583Z,97.20
2022-09-28T07:19:53.500Z,97.20
2022-09-28T07:20:28.943Z,97.10
2022-09-28T07:21:03.583Z,97.10
2022-09-28T07:21:37.608Z,97.10
2022-09-28T07:22:18.887Z,97.00
2022-09-28T07:22:54.221Z,97.00
2022-09-28T07:23:31.822Z,96.90
2022-09-28T07:24:24.287Z,96.90
2022-09-28T07:25:16.673Z,97.00
2022-09-28T07:25:54.330Z,96.90
2022-09-28T07:26:39.161Z,97.00
2022-09-28T07:27:26.801Z,96.90
2022-09-28T07:28:23.602Z,96.90
2022-09-28T07:29:14.732Z,96.90
2022-09-28T07:30:04.116Z,97.00
2022-09-28T07:30:45.301Z,97.00
2022-09-28T07:31:26.021Z,97.00
2022-09-28T07:32:37.778Z,97.10
2022-09-28T07:33:36.035Z,97.20
2022-09-28T07:34:31.153Z,97.20
2022-09-28T07:35:10.829Z,97.20
2022-09-28T07:35:53.657Z,97.20
2022-09-28T07:36:30.016Z,97.20
2022-09-28T07:37:03.359Z,97.20
2022-09-28T07:37:38.545Z,97.10
2022-09-28T07:38:12.181Z,97.10
2022-09-28T07:38:45.225Z,97.20
2022-09-28T07:39:20.757Z,97.20
2022-09-28T07:40:12.501Z,97.20
2022-09-28T07:41:03.950Z,97.20
2022-09-28T07:41:40.372Z,97.20
2022-09-28T07:42:15.042Z,97.10
2022-09-28T07:42:49.800Z,97.20
2022-09-28T07:43:23.338Z,97.20
2022-09-28T07:43:59.720Z,97.20
2022-09-28T07:44:34.388Z,97.20
2022-09-28T07:45:09.431Z,97.20
2022-09-28T07:45:44.286Z,97.20
2022-09-28T07:46:19.876Z,97.20
2022-09-28T07:47:07.182Z,97.20
2022-09-28T07:48:00.131Z,97.20
2022-09-28T07:48:55.065Z,97.20
2022-09-28T07:49:39.160Z,97.20
2022-09-28T07:50:36.769Z,97.30
2022-09-28T07:51:21.529Z,97.20
2022-09-28T07:52:26.777Z,97.20
2022-09-28T07:53:17.801Z,97.10
2022-09-28T07:54:07.176Z,97.00
2022-09-28T07:55:06.644Z,97.00
2022-09-28T07:56:12.704Z,96.90
2022-09-28T07:56:56.574Z,96.90
2022-09-28T07:57:47.822Z,96.90
2022-09-28T07:58:33.366Z,96.90
2022-09-28T07:59:25.876Z,96.90
2022-09-28T08:00:17.396Z,96.90
2022-09-28T08:00:55.272Z,96.90
2022-09-28T08:01:28.621Z,96.90
2022-09-28T08:02:02.739Z,97.00
2022-09-28T08:02:36.833Z,96.90
2022-09-28T08:03:11.216Z,96.90
2022-09-28T08:03:45.977Z,97.00
2022-09-28T08:04:22.138Z,97.00
2022-09-28T08:04:57.851Z,97.10
2022-09-28T08:05:32.244Z,97.10
2022-09-28T08:06:07.191Z,97.20
2022-09-28T08:06:42.211Z,97.20
2022-09-28T08:07:21.542Z,97.20
2022-09-28T08:08:04.082Z,97.40
2022-09-28T08:08:37.777Z,97.20
2022-09-28T08:09:12.729Z,97.20
2022-09-28T08:10:05.318Z,97.20
2022-09-28T08:11:04.900Z,97.20
2022-09-28T08:11:51.608Z,97.10
2022-09-28T08:12:43.887Z,97.10
2022-09-28T08:13:36.015Z,97.10